createdAt,value
2017-11-18T00:00:06.343Z,94.52
2017-11-18T00:00:19.502Z,94.62
2017-11-18T00:00:32.660Z,94.52
2017-11-18T00:00:45.753Z,94.23
2017-11-18T00:00:58.868Z,94.23
2017-11-18T00:01:11.513Z,94.43
2017-11-18T00:01:24.686Z,94.43
2017-11-18T00:01:37.821Z,94.43
2017-11-18T00:01:50.948Z,94.33
2017-11-18T00:02:04.131Z,94.43
2017-11-18T00:02:17.268Z,94.52
2017-11-18T00:02:29.962Z,94.52
2017-11-18T00:02:43.047Z,94.62
2017-11-18T00:02:56.153Z,94.23
2017-11-18T00:03:09.314Z,94.43
2017-11-18T00:03:22.374Z,94.33
2017-11-18T00:03:35.506Z,94.43
2017-11-18T00:03:48.677Z,94.62
2017-11-18T00:04:01.847Z,94.91
2017-11-18T00:04:14.072Z,94.91
2017-11-18T00:04:27.447Z,94.91
2017-11-18T00:04:40.140Z,94.91
2017-11-18T00:04:53.293Z,94.71
2017-11-18T00:05:06.428Z,94.81
2017-11-18T00:05:19.582Z,94.81
2017-11-18T00:05:32.689Z,94.38
2017-11-18T00:05:45.811Z,94.33
2017-11-18T00:05:58.953Z,94.23
2017-11-18T00:06:12.087Z,94.62
2017-11-18T00:06:25.213Z,94.33
2017-11-18T00:06:38.296Z,94.43
2017-11-18T00:06:51.448Z,94.33
2017-11-18T00:07:04.531Z,94.23
2017-11-18T00:07:17.190Z,94.33
2017-11-18T00:07:30.283Z,94.43
2017-11-18T00:07:42.978Z,94.33
2017-11-18T00:07:56.087Z,94.23
2017-11-18T00:08:09.212Z,94.33
2017-11-18T00:08:22.404Z,94.43
2017-11-18T00:08:35.083Z,94.81
2017-11-18T00:08:48.159Z,94.43
2017-11-18T00:09:01.453Z,94.33
2017-11-18T00:09:14.595Z,94.33
2017-11-18T00:09:28.016Z,94.52
2017-11-18T00:09:40.178Z,94.52
2017-11-18T00:09:53.333Z,94.62
2017-11-18T00:10:06.500Z,94.62
2017-11-18T00:10:19.666Z,94.91
2017-11-18T00:10:32.285Z,95.01
2017-11-18T00:10:44.926Z,94.43
2017-11-18T00:10:57.600Z,94.62
2017-11-18T00:11:10.738Z,94.33
2017-11-18T00:11:23.810Z,94.43
2017-11-18T00:11:36.959Z,94.33
2017-11-18T00:11:50.071Z,94.52
2017-11-18T00:12:03.213Z,94.23
2017-11-18T00:12:16.369Z,94.23
2017-11-18T00:12:29.028Z,94.43
2017-11-18T00:12:42.178Z,94.43
2017-11-18T00:12:55.372Z,94.52
2017-11-18T00:13:08.521Z,94.43
2017-11-18T00:13:21.635Z,94.13
2017-11-18T00:13:34.293Z,94.04
2017-11-18T00:13:47.426Z,93.85
2017-11-18T00:14:00.501Z,93.94
2017-11-18T00:14:13.616Z,94.04
2017-11-18T00:14:27.004Z,94.23
2017-11-18T00:14:40.312Z,94.13
2017-11-18T00:14:53.434Z,94.91
2017-11-18T00:15:06.608Z,94.52
2017-11-18T00:15:19.745Z,94.23
2017-11-18T00:15:32.447Z,94.43
2017-11-18T00:15:45.536Z,94.33
2017-11-18T00:15:58.215Z,94.62
2017-11-18T00:16:10.834Z,94.33
2017-11-18T00:16:23.970Z,94.91
2017-11-18T00:16:36.601Z,94.71
2017-11-18T00:16:49.749Z,94.43
2017-11-18T00:17:02.869Z,94.33
2017-11-18T00:17:15.540Z,94.43
2017-11-18T00:17:28.642Z,94.23
2017-11-18T00:17:41.828Z,94.33
2017-11-18T00:17:55.003Z,94.52
2017-11-18T00:18:08.156Z,95.01
2017-11-18T00:18:21.292Z,94.91
2017-11-18T00:18:33.989Z,95.1
2017-11-18T00:18:46.650Z,94.13
2017-11-18T00:18:59.802Z,94.38
2017-11-18T00:19:12.464Z,94.52
2017-11-18T00:19:25.834Z,94.91
2017-11-18T00:19:38.473Z,95.1
2017-11-18T00:19:51.586Z,95.1
2017-11-18T00:20:03.742Z,95.01
2017-11-18T00:20:16.415Z,94.91
2017-11-18T00:20:29.609Z,94.43
2017-11-18T00:20:42.771Z,94.57
2017-11-18T00:20:55.929Z,94.33
2017-11-18T00:21:09.159Z,95.29
2017-11-18T00:21:22.355Z,94.33
2017-11-18T00:21:35.564Z,94.43
2017-11-18T00:21:48.777Z,95.1
2017-11-18T00:22:01.893Z,94.23
2017-11-18T00:22:15.070Z,94.91
2017-11-18T00:22:27.724Z,94.62
2017-11-18T00:22:40.322Z,94.91
2017-11-18T00:22:52.982Z,94.71
2017-11-18T00:23:06.137Z,94.81
2017-11-18T00:23:19.283Z,94.91
2017-11-18T00:23:32.426Z,94.52
2017-11-18T00:23:45.527Z,94.76
2017-11-18T00:23:58.703Z,94.71
2017-11-18T00:24:11.375Z,94.33
2017-11-18T00:24:23.073Z,94.86
2017-11-18T00:24:36.194Z,94.62
2017-11-18T00:24:49.330Z,94.76
2017-11-18T00:25:02.501Z,95.15
2017-11-18T00:25:15.660Z,95.25
2017-11-18T00:25:28.392Z,95.34
2017-11-18T00:25:41.532Z,95.25
2017-11-18T00:25:54.710Z,95.25
2017-11-18T00:26:07.861Z,95.34
2017-11-18T00:26:20.560Z,95.64
2017-11-18T00:26:33.688Z,95.64
2017-11-18T00:26:46.853Z,95.54
2017-11-18T00:26:59.898Z,95.44
2017-11-18T00:27:13.112Z,95.34
2017-11-18T00:27:26.291Z,95.1
2017-11-18T00:27:39.412Z,95.25
2017-11-18T00:27:52.533Z,95.15
2017-11-18T00:28:05.699Z,95.2
2017-11-18T00:28:18.343Z,95.15
2017-11-18T00:28:31.461Z,95.49
2017-11-18T00:28:44.588Z,94.86
2017-11-18T00:28:57.732Z,94.81
2017-11-18T00:29:10.870Z,94.76
2017-11-18T00:29:24.060Z,95.01
2017-11-18T00:29:37.280Z,94.91
2017-11-18T00:29:50.379Z,94.76
2017-11-18T00:30:03.571Z,95.15
2017-11-18T00:30:16.271Z,95.44
2017-11-18T00:30:29.395Z,95.15
2017-11-18T00:30:42.500Z,95.15
2017-11-18T00:30:55.619Z,95.25
2017-11-18T00:31:08.761Z,95.06
2017-11-18T00:31:21.895Z,95.25
2017-11-18T00:31:35.023Z,95.54
2017-11-18T00:31:48.199Z,95.64
2017-11-18T00:32:01.317Z,95.15
2017-11-18T00:32:14.510Z,95.15
2017-11-18T00:32:27.706Z,95.25
2017-11-18T00:32:40.780Z,95.54
2017-11-18T00:32:53.874Z,95.34
2017-11-18T00:33:07.056Z,95.73
2017-11-18T00:33:20.202Z,95.44
2017-11-18T00:33:32.834Z,95.54
2017-11-18T00:33:45.992Z,95.83
2017-11-18T00:33:59.140Z,95.73
2017-11-18T00:34:12.295Z,95.34
2017-11-18T00:34:25.418Z,95.44
2017-11-18T00:34:38.797Z,95.06
2017-11-18T00:34:52.000Z,95.29
2017-11-18T00:35:05.179Z,95.2
2017-11-18T00:35:17.855Z,95.49
2017-11-18T00:35:31.022Z,94.86
2017-11-18T00:35:44.207Z,94.76
2017-11-18T00:35:57.368Z,95.39
2017-11-18T00:36:10.500Z,94.81
2017-11-18T00:36:23.695Z,94.91
2017-11-18T00:36:36.337Z,94.91
2017-11-18T00:36:49.711Z,94.81
2017-11-18T00:37:02.861Z,94.57
2017-11-18T00:37:16.008Z,94.52
2017-11-18T00:37:29.126Z,94.91
2017-11-18T00:37:42.244Z,95.01
2017-11-18T00:37:55.400Z,94.91
2017-11-18T00:38:08.559Z,94.86
2017-11-18T00:38:21.909Z,95.01
2017-11-18T00:38:35.030Z,95.01
2017-11-18T00:38:48.203Z,94.91
2017-11-18T00:39:01.333Z,94.91
2017-11-18T00:39:13.990Z,94.71
2017-11-18T00:39:27.143Z,94.91
2017-11-18T00:39:40.357Z,95.01
2017-11-18T00:39:53.523Z,94.33
2017-11-18T00:40:06.163Z,94.91
2017-11-18T00:40:19.357Z,94.91
2017-11-18T00:40:32.487Z,95.01
2017-11-18T00:40:45.599Z,94.43
2017-11-18T00:40:58.245Z,94.71
2017-11-18T00:41:11.360Z,95.01
2017-11-18T00:41:24.692Z,94.91
2017-11-18T00:41:37.376Z,95.06
2017-11-18T00:41:50.454Z,94.91
2017-11-18T00:42:03.650Z,95.25
2017-11-18T00:42:16.817Z,95.15
2017-11-18T00:42:30.234Z,95.44
2017-11-18T00:42:43.421Z,95.25
2017-11-18T00:42:56.587Z,95.54
2017-11-18T00:43:08.800Z,95.54
2017-11-18T00:43:21.991Z,95.54
2017-11-18T00:43:35.190Z,95.25
2017-11-18T00:43:48.314Z,95.34
2017-11-18T00:44:01.049Z,95.59
2017-11-18T00:44:14.196Z,95.15
2017-11-18T00:44:27.346Z,95.54
2017-11-18T00:44:39.998Z,96.12
2017-11-18T00:44:53.125Z,96.12
2017-11-18T00:45:06.259Z,96.02
2017-11-18T00:45:19.425Z,96.02
2017-11-18T00:45:32.578Z,95.64
2017-11-18T00:45:45.215Z,95.83
2017-11-18T00:45:58.419Z,95.73
2017-11-18T00:46:10.607Z,95.54
2017-11-18T00:46:23.771Z,95.93
2017-11-18T00:46:36.945Z,95.64
2017-11-18T00:46:50.142Z,95.73
2017-11-18T00:47:03.260Z,95.54
2017-11-18T00:47:16.357Z,95.54
2017-11-18T00:47:29.513Z,95.64
2017-11-18T00:47:42.640Z,95.73
2017-11-18T00:47:55.788Z,95.73
2017-11-18T00:48:08.872Z,96.02
2017-11-18T00:48:22.053Z,95.73
2017-11-18T00:48:35.246Z,96.41
2017-11-18T00:48:48.386Z,96.7
2017-11-18T00:49:01.551Z,96.41
2017-11-18T00:49:14.649Z,96.02
2017-11-18T00:49:27.807Z,95.64
2017-11-18T00:49:41.158Z,96.22
2017-11-18T00:49:54.265Z,96.22
2017-11-18T00:50:06.900Z,96.12
2017-11-18T00:50:20.016Z,95.83
2017-11-18T00:50:33.115Z,96.02
2017-11-18T00:50:46.252Z,95.83
2017-11-18T00:50:59.426Z,96.02
2017-11-18T00:51:12.608Z,95.83
2017-11-18T00:51:25.741Z,95.73
2017-11-18T00:51:38.858Z,95.93
2017-11-18T00:51:51.981Z,96.02
2017-11-18T00:52:04.631Z,95.73
2017-11-18T00:52:17.803Z,95.64
2017-11-18T00:52:30.930Z,96.41
2017-11-18T00:52:43.137Z,95.83
2017-11-18T00:52:56.258Z,95.73
2017-11-18T00:53:09.403Z,96.12
2017-11-18T00:53:22.501Z,96.02
2017-11-18T00:53:35.689Z,95.83
2017-11-18T00:53:48.836Z,95.83
2017-11-18T00:54:01.512Z,96.31
2017-11-18T00:54:14.630Z,95.93
2017-11-18T00:54:27.822Z,96.31
2017-11-18T00:54:40.979Z,96.8
2017-11-18T00:54:54.103Z,96.41
2017-11-18T00:55:06.764Z,96.31
2017-11-18T00:55:19.908Z,96.6
2017-11-18T00:55:32.569Z,96.6
2017-11-18T00:55:45.711Z,96.8
2017-11-18T00:55:58.853Z,96.51
2017-11-18T00:56:11.447Z,96.51
2017-11-18T00:56:24.543Z,96.41
2017-11-18T00:56:37.168Z,96.31
2017-11-18T00:56:50.293Z,96.6
2017-11-18T00:57:02.920Z,95.73
2017-11-18T00:57:16.026Z,95.93
2017-11-18T00:57:29.207Z,96.12
2017-11-18T00:57:41.855Z,96.02
2017-11-18T00:57:54.977Z,96.12
2017-11-18T00:58:08.091Z,95.83
2017-11-18T00:58:21.206Z,96.22
2017-11-18T00:58:34.350Z,95.44
2017-11-18T00:58:47.537Z,95.73
2017-11-18T00:59:00.662Z,95.83
2017-11-18T00:59:13.788Z,95.64
2017-11-18T00:59:26.395Z,95.73
2017-11-18T00:59:39.144Z,96.12
2017-11-18T00:59:52.281Z,95.93
2017-11-18T01:00:05.397Z,96.31
2017-11-18T01:00:18.510Z,95.93
2017-11-18T01:00:31.652Z,95.83
2017-11-18T01:00:44.819Z,95.73
2017-11-18T01:00:57.479Z,96.02
2017-11-18T01:01:10.106Z,96.41
2017-11-18T01:01:23.228Z,96.02
2017-11-18T01:01:35.849Z,95.73
2017-11-18T01:01:48.971Z,95.93
2017-11-18T01:02:01.642Z,95.73
2017-11-18T01:02:14.758Z,95.73
2017-11-18T01:02:27.456Z,95.64
2017-11-18T01:02:40.586Z,95.93
2017-11-18T01:02:53.238Z,95.64
2017-11-18T01:03:05.831Z,95.64
2017-11-18T01:03:18.956Z,95.54
2017-11-18T01:03:32.110Z,95.64
2017-11-18T01:03:45.293Z,95.73
2017-11-18T01:03:58.424Z,95.54
2017-11-18T01:04:11.544Z,95.15
2017-11-18T01:04:24.669Z,95.44
2017-11-18T01:04:37.799Z,95.34
2017-11-18T01:04:51.094Z,95.44
2017-11-18T01:05:04.209Z,95.54
2017-11-18T01:05:17.343Z,95.44
2017-11-18T01:05:30.505Z,95.64
2017-11-18T01:05:43.639Z,95.54
2017-11-18T01:05:56.819Z,95.25
2017-11-18T01:06:10.022Z,95.34
2017-11-18T01:06:22.649Z,95.06
2017-11-18T01:06:35.800Z,95.06
2017-11-18T01:06:48.447Z,94.67
2017-11-18T01:07:01.544Z,94.96
2017-11-18T01:07:14.701Z,95.25
2017-11-18T01:07:27.821Z,94.67
2017-11-18T01:07:40.991Z,95.25
2017-11-18T01:07:54.132Z,94.86
2017-11-18T01:08:07.238Z,94.86
2017-11-18T01:08:19.888Z,95.06
2017-11-18T01:08:33.078Z,94.76
2017-11-18T01:08:46.252Z,94.96
2017-11-18T01:08:59.420Z,95.25
2017-11-18T01:09:12.088Z,95.15
2017-11-18T01:09:25.250Z,95.54
2017-11-18T01:09:38.446Z,95.25
2017-11-18T01:09:51.162Z,95.34
2017-11-18T01:10:04.303Z,95.15
2017-11-18T01:10:16.448Z,95.15
2017-11-18T01:10:29.089Z,95.15
2017-11-18T01:10:42.273Z,95.25
2017-11-18T01:10:55.394Z,95.25
2017-11-18T01:11:07.120Z,95.44
2017-11-18T01:11:20.299Z,95.15
2017-11-18T01:11:33.378Z,95.15
2017-11-18T01:11:46.511Z,95.44
2017-11-18T01:11:59.635Z,95.34
2017-11-18T01:12:12.312Z,95.06
2017-11-18T01:12:25.445Z,94.96
2017-11-18T01:12:37.657Z,94.96
2017-11-18T01:12:50.845Z,94.96
2017-11-18T01:13:04.018Z,94.76
2017-11-18T01:13:17.186Z,94.96
2017-11-18T01:13:30.372Z,94.76
2017-11-18T01:13:43.547Z,94.86
2017-11-18T01:13:56.242Z,94.86
2017-11-18T01:14:09.394Z,94.76
2017-11-18T01:14:22.527Z,94.57
2017-11-18T01:14:35.177Z,95.06
2017-11-18T01:14:48.589Z,94.86
2017-11-18T01:15:01.756Z,94.96
2017-11-18T01:15:14.968Z,94.86
2017-11-18T01:15:28.125Z,95.34
2017-11-18T01:15:40.778Z,95.25
2017-11-18T01:15:53.911Z,95.15
2017-11-18T01:16:07.023Z,95.15
2017-11-18T01:16:20.181Z,95.15
2017-11-18T01:16:32.832Z,95.06
2017-11-18T01:16:46.016Z,95.54
2017-11-18T01:16:59.166Z,95.34
2017-11-18T01:17:12.267Z,95.44
2017-11-18T01:17:25.444Z,95.34
2017-11-18T01:17:38.575Z,95.25
2017-11-18T01:17:51.787Z,95.34
2017-11-18T01:18:04.979Z,95.25
2017-11-18T01:18:17.650Z,95.06
2017-11-18T01:18:30.811Z,95.25
2017-11-18T01:18:42.992Z,95.44
2017-11-18T01:18:56.113Z,94.86
2017-11-18T01:19:09.211Z,94.86
2017-11-18T01:19:22.319Z,95.06
2017-11-18T01:19:35.441Z,94.96
2017-11-18T01:19:49.271Z,94.86
2017-11-18T01:20:02.396Z,94.86
2017-11-18T01:20:15.561Z,95.06
2017-11-18T01:20:28.178Z,94.96
2017-11-18T01:20:40.343Z,95.15
2017-11-18T01:20:53.457Z,94.86
2017-11-18T01:21:06.624Z,95.44
2017-11-18T01:21:19.812Z,95.34
2017-11-18T01:21:32.928Z,94.86
2017-11-18T01:21:46.098Z,95.06
2017-11-18T01:21:58.282Z,94.96
2017-11-18T01:22:11.427Z,94.86
2017-11-18T01:22:24.574Z,95.25
2017-11-18T01:22:37.777Z,94.57
2017-11-18T01:22:50.979Z,94.62
2017-11-18T01:23:04.104Z,94.52
2017-11-18T01:23:17.213Z,94.71
2017-11-18T01:23:30.363Z,94.96
2017-11-18T01:23:43.526Z,94.62
2017-11-18T01:23:56.165Z,94.57
2017-11-18T01:24:08.817Z,94.71
2017-11-18T01:24:21.971Z,94.91
2017-11-18T01:24:35.077Z,95.01
2017-11-18T01:24:48.230Z,95.01
2017-11-18T01:25:01.399Z,95.1
2017-11-18T01:25:13.984Z,95.01
2017-11-18T01:25:26.634Z,94.91
2017-11-18T01:25:39.774Z,94.62
2017-11-18T01:25:52.489Z,94.43
2017-11-18T01:26:05.624Z,94.91
2017-11-18T01:26:18.813Z,94.52
2017-11-18T01:26:31.939Z,95.1
2017-11-18T01:26:45.106Z,94.91
2017-11-18T01:26:58.243Z,94.43
2017-11-18T01:27:10.932Z,94.67
2017-11-18T01:27:24.074Z,95.01
2017-11-18T01:27:37.213Z,94.52
2017-11-18T01:27:50.294Z,94.91
2017-11-18T01:28:03.479Z,94.81
2017-11-18T01:28:16.597Z,94.71
2017-11-18T01:28:29.716Z,95.01
2017-11-18T01:28:42.919Z,94.91
2017-11-18T01:28:56.052Z,94.33
2017-11-18T01:29:09.217Z,95.29
2017-11-18T01:29:22.355Z,95.1
2017-11-18T01:29:34.966Z,95.1
2017-11-18T01:29:48.107Z,94.91
2017-11-18T01:30:01.329Z,94.86
2017-11-18T01:30:14.535Z,95.1
2017-11-18T01:30:27.664Z,94.81
2017-11-18T01:30:40.275Z,94.81
2017-11-18T01:30:53.464Z,94.86
2017-11-18T01:31:06.576Z,94.91
2017-11-18T01:31:19.216Z,94.81
2017-11-18T01:31:32.360Z,94.91
2017-11-18T01:31:45.418Z,94.62
2017-11-18T01:31:58.520Z,94.81
2017-11-18T01:32:11.715Z,94.91
2017-11-18T01:32:24.893Z,94.33
2017-11-18T01:32:38.046Z,94.33
2017-11-18T01:32:51.183Z,94.91
2017-11-18T01:33:03.832Z,94.91
2017-11-18T01:33:16.972Z,95.01
2017-11-18T01:33:30.135Z,95.01
2017-11-18T01:33:42.823Z,94.43
2017-11-18T01:33:55.499Z,94.23
2017-11-18T01:34:07.657Z,94.91
2017-11-18T01:34:20.854Z,94.52
2017-11-18T01:34:34.002Z,94.62
2017-11-18T01:34:46.171Z,94.91
2017-11-18T01:35:00.067Z,95.2
2017-11-18T01:35:12.681Z,94.52
2017-11-18T01:35:25.874Z,95.01
2017-11-18T01:35:39.006Z,95.1
2017-11-18T01:35:52.138Z,94.71
2017-11-18T01:36:05.263Z,94.52
2017-11-18T01:36:17.883Z,94.33
2017-11-18T01:36:31.044Z,94.43
2017-11-18T01:36:44.143Z,94.43
2017-11-18T01:36:57.353Z,94.43
2017-11-18T01:37:10.019Z,94.33
2017-11-18T01:37:23.151Z,94.43
2017-11-18T01:37:36.237Z,94.43
2017-11-18T01:37:49.380Z,94.52
2017-11-18T01:38:02.509Z,94.91
2017-11-18T01:38:15.662Z,94.91
2017-11-18T01:38:28.817Z,94.67
2017-11-18T01:38:41.992Z,95.25
2017-11-18T01:38:55.086Z,95.44
2017-11-18T01:39:08.270Z,95.64
2017-11-18T01:39:21.397Z,95.54
2017-11-18T01:39:34.062Z,95.54
2017-11-18T01:39:46.670Z,95.83
2017-11-18T01:39:59.854Z,95.73
2017-11-18T01:40:12.513Z,96.12
2017-11-18T01:40:25.212Z,95.93
2017-11-18T01:40:38.396Z,95.73
2017-11-18T01:40:51.531Z,95.73
2017-11-18T01:41:04.165Z,95.73
2017-11-18T01:41:17.356Z,96.12
2017-11-18T01:41:30.520Z,95.64
2017-11-18T01:41:43.697Z,95.49
2017-11-18T01:41:56.850Z,95.49
2017-11-18T01:42:09.944Z,95.49
2017-11-18T01:42:22.634Z,95.39
2017-11-18T01:42:35.374Z,95.2
2017-11-18T01:42:48.475Z,95.29
2017-11-18T01:43:01.601Z,95.49
2017-11-18T01:43:14.758Z,95.1
2017-11-18T01:43:27.950Z,95.49
2017-11-18T01:43:40.612Z,95.15
2017-11-18T01:43:53.747Z,95.29
2017-11-18T01:44:06.932Z,95.29
2017-11-18T01:44:20.065Z,95.44
2017-11-18T01:44:33.203Z,95.44
2017-11-18T01:44:46.348Z,95.25
2017-11-18T01:44:59.800Z,94.86
2017-11-18T01:45:12.917Z,95.25
2017-11-18T01:45:26.076Z,95.25
2017-11-18T01:45:39.271Z,95.25
2017-11-18T01:45:52.471Z,95.54
2017-11-18T01:46:05.625Z,95.64
2017-11-18T01:46:18.800Z,95.54
2017-11-18T01:46:31.974Z,95.54
2017-11-18T01:46:45.111Z,95.34
2017-11-18T01:46:58.289Z,95.15
2017-11-18T01:47:11.346Z,95.34
2017-11-18T01:47:24.009Z,95.06
2017-11-18T01:47:36.729Z,95.06
2017-11-18T01:47:49.833Z,95.39
2017-11-18T01:48:02.968Z,95.25
2017-11-18T01:48:16.138Z,95.1
2017-11-18T01:48:29.242Z,94.67
2017-11-18T01:48:42.380Z,95.2
2017-11-18T01:48:55.524Z,94.86
2017-11-18T01:49:08.730Z,94.91
2017-11-18T01:49:21.843Z,95.06
2017-11-18T01:49:34.959Z,95.1
2017-11-18T01:49:47.631Z,95.1
2017-11-18T01:50:01.473Z,95.1
2017-11-18T01:50:14.641Z,94.91
2017-11-18T01:50:27.840Z,94.91
2017-11-18T01:50:40.529Z,95.06
2017-11-18T01:50:53.705Z,95.34
2017-11-18T01:51:06.836Z,95.25
2017-11-18T01:51:19.466Z,95.25
2017-11-18T01:51:32.630Z,95.44
2017-11-18T01:51:45.740Z,95.25
2017-11-18T01:52:00.278Z,95.06
2017-11-18T01:52:13.430Z,95.06
2017-11-18T01:52:26.583Z,95.25
2017-11-18T01:52:39.714Z,95.25
2017-11-18T01:52:52.897Z,95.15
2017-11-18T01:53:06.081Z,95.15
2017-11-18T01:53:19.216Z,95.44
2017-11-18T01:53:31.866Z,95.25
2017-11-18T01:53:45.017Z,95.34
2017-11-18T01:53:58.163Z,95.34
2017-11-18T01:54:11.333Z,95.25
2017-11-18T01:54:24.462Z,95.15
2017-11-18T01:54:37.638Z,95.25
2017-11-18T01:54:50.757Z,95.15
2017-11-18T01:55:03.861Z,95.25
2017-11-18T01:55:17.039Z,95.25
2017-11-18T01:55:29.222Z,95.25
2017-11-18T01:55:42.413Z,95.25
2017-11-18T01:55:55.611Z,95.06
2017-11-18T01:56:08.731Z,95.25
2017-11-18T01:56:21.865Z,95.44
2017-11-18T01:56:35.040Z,95.64
2017-11-18T01:56:47.742Z,95.06
2017-11-18T01:57:00.899Z,95.54
2017-11-18T01:57:13.993Z,95.25
2017-11-18T01:57:27.178Z,95.44
2017-11-18T01:57:40.320Z,95.25
2017-11-18T01:57:53.472Z,95.54
2017-11-18T01:58:06.134Z,95.44
2017-11-18T01:58:19.320Z,95.34
2017-11-18T01:58:32.446Z,95.64
2017-11-18T01:58:45.133Z,95.64
2017-11-18T01:58:57.766Z,95.59
2017-11-18T01:59:10.892Z,95.54
2017-11-18T01:59:23.975Z,95.2
2017-11-18T01:59:37.150Z,95.25
2017-11-18T01:59:49.778Z,95.29
2017-11-18T02:00:02.994Z,95.29
2017-11-18T02:00:15.198Z,95.49
2017-11-18T02:00:28.395Z,95.49
2017-11-18T02:00:41.139Z,95.29
2017-11-18T02:00:54.307Z,95.49
2017-11-18T02:01:06.952Z,95.2
2017-11-18T02:01:20.113Z,95.39
2017-11-18T02:01:33.301Z,94.62
2017-11-18T02:01:46.434Z,94.91
2017-11-18T02:01:59.551Z,94.91
2017-11-18T02:02:12.197Z,94.81
2017-11-18T02:02:25.332Z,95.01
2017-11-18T02:02:38.479Z,95.01
2017-11-18T02:02:51.664Z,95.49
2017-11-18T02:03:04.811Z,95.1
2017-11-18T02:03:17.930Z,95.1
2017-11-18T02:03:31.072Z,94.91
2017-11-18T02:03:44.183Z,95.01
2017-11-18T02:03:57.324Z,94.91
2017-11-18T02:04:09.960Z,94.91
2017-11-18T02:04:23.118Z,95.1
2017-11-18T02:04:36.306Z,95.01
2017-11-18T02:04:49.419Z,94.81
2017-11-18T02:05:02.610Z,94.91
2017-11-18T02:05:15.952Z,95.1
2017-11-18T02:05:40.350Z,94.91
2017-11-18T02:05:53.494Z,94.91
2017-11-18T02:06:06.567Z,94.81
2017-11-18T02:06:19.697Z,94.91
2017-11-18T02:06:32.868Z,94.91
2017-11-18T02:06:46.001Z,94.91
2017-11-18T02:06:59.137Z,94.86
2017-11-18T02:07:12.280Z,94.62
2017-11-18T02:07:25.408Z,94.91
2017-11-18T02:07:38.616Z,94.91
2017-11-18T02:07:51.795Z,94.91
2017-11-18T02:08:04.947Z,94.52
2017-11-18T02:08:18.063Z,95.1
2017-11-18T02:08:31.197Z,94.71
2017-11-18T02:08:44.321Z,94.91
2017-11-18T02:08:57.550Z,94.91
2017-11-18T02:09:10.715Z,94.81
2017-11-18T02:09:23.881Z,94.33
2017-11-18T02:09:36.442Z,95.01
2017-11-18T02:09:48.645Z,94.71
2017-11-18T02:10:01.772Z,94.91
2017-11-18T02:10:14.932Z,94.43
2017-11-18T02:10:28.027Z,94.38
2017-11-18T02:10:40.658Z,94.18
2017-11-18T02:10:53.280Z,95.1
2017-11-18T02:11:06.464Z,95.01
2017-11-18T02:11:19.670Z,94.52
2017-11-18T02:11:32.289Z,94.62
2017-11-18T02:11:44.975Z,94.23
2017-11-18T02:11:58.184Z,94.43
2017-11-18T02:12:11.470Z,94.86
2017-11-18T02:12:24.599Z,94.86
2017-11-18T02:12:37.668Z,94.57
2017-11-18T02:12:50.810Z,94.81
2017-11-18T02:13:03.933Z,94.91
2017-11-18T02:13:17.012Z,94.91
2017-11-18T02:13:30.139Z,95.01
2017-11-18T02:13:43.355Z,95.1
2017-11-18T02:13:56.415Z,95.1
2017-11-18T02:14:08.986Z,95.1
2017-11-18T02:14:22.123Z,94.91
2017-11-18T02:14:35.237Z,95.06
2017-11-18T02:14:48.285Z,95.25
2017-11-18T02:15:01.452Z,94.71
2017-11-18T02:15:14.884Z,95.06
2017-11-18T02:15:28.075Z,95.29
2017-11-18T02:15:41.227Z,95.15
2017-11-18T02:15:54.296Z,95.25
2017-11-18T02:16:07.404Z,95.34
2017-11-18T02:16:19.582Z,95.29
2017-11-18T02:16:32.226Z,94.91
2017-11-18T02:16:45.392Z,94.81
2017-11-18T02:16:58.616Z,95.01
2017-11-18T02:17:11.774Z,94.91
2017-11-18T02:17:24.977Z,94.91
2017-11-18T02:17:37.641Z,94.76
2017-11-18T02:17:50.772Z,95.34
2017-11-18T02:18:03.451Z,95.34
2017-11-18T02:18:16.567Z,95.25
2017-11-18T02:18:29.684Z,95.06
2017-11-18T02:18:42.844Z,95.25
2017-11-18T02:18:55.928Z,95.44
2017-11-18T02:19:09.071Z,95.49
2017-11-18T02:19:22.219Z,95.2
2017-11-18T02:19:35.364Z,95.25
2017-11-18T02:19:48.488Z,94.76
2017-11-18T02:20:01.570Z,95.15
2017-11-18T02:20:15.417Z,95.25
2017-11-18T02:20:28.565Z,95.25
2017-11-18T02:20:41.710Z,95.34
2017-11-18T02:20:54.842Z,95.34
2017-11-18T02:21:07.502Z,95.25
2017-11-18T02:21:20.585Z,95.44
2017-11-18T02:21:33.720Z,95.25
2017-11-18T02:21:46.816Z,95.25
2017-11-18T02:21:59.987Z,95.25
2017-11-18T02:22:13.124Z,95.15
2017-11-18T02:22:26.264Z,95.25
2017-11-18T02:22:39.389Z,95.15
2017-11-18T02:22:52.552Z,95.34
2017-11-18T02:23:05.277Z,95.44
2017-11-18T02:23:18.447Z,95.25
2017-11-18T02:23:31.118Z,95.15
2017-11-18T02:23:44.272Z,95.25
2017-11-18T02:23:56.930Z,95.25
2017-11-18T02:24:09.638Z,94.86
2017-11-18T02:24:22.295Z,95.15
2017-11-18T02:24:35.423Z,94.86
2017-11-18T02:24:48.540Z,94.86
2017-11-18T02:25:01.683Z,94.57
2017-11-18T02:25:14.367Z,95.25
2017-11-18T02:25:27.487Z,94.76
2017-11-18T02:25:40.618Z,94.76
2017-11-18T02:25:53.819Z,95.1
2017-11-18T02:26:07.006Z,94.86
2017-11-18T02:26:19.706Z,94.57
2017-11-18T02:26:32.862Z,94.91
2017-11-18T02:26:45.988Z,95.1
2017-11-18T02:26:59.143Z,95.01
2017-11-18T02:27:12.271Z,95.2
2017-11-18T02:27:25.372Z,94.86
2017-11-18T02:27:38.522Z,94.86
2017-11-18T02:27:51.704Z,94.96
2017-11-18T02:28:04.839Z,95.06
2017-11-18T02:28:17.976Z,94.76
2017-11-18T02:28:31.127Z,94.86
2017-11-18T02:28:44.305Z,94.76
2017-11-18T02:29:03.753Z,95.15
2017-11-18T02:29:16.856Z,94.86
2017-11-18T02:29:29.980Z,94.96
2017-11-18T02:29:43.093Z,94.96
2017-11-18T02:29:55.713Z,94.96
2017-11-18T02:30:08.889Z,94.76
2017-11-18T02:30:22.124Z,94.86
2017-11-18T02:30:35.269Z,95.15
2017-11-18T02:30:48.474Z,95.06
2017-11-18T02:31:01.586Z,95.06
2017-11-18T02:31:14.721Z,94.86
2017-11-18T02:31:27.867Z,94.96
2017-11-18T02:31:41.001Z,94.76
2017-11-18T02:31:53.661Z,95.06
2017-11-18T02:32:06.804Z,94.86
2017-11-18T02:32:19.013Z,94.86
2017-11-18T02:32:31.612Z,95.34
2017-11-18T02:32:44.210Z,95.25
2017-11-18T02:32:57.320Z,95.64
2017-11-18T02:33:10.452Z,95.15
2017-11-18T02:33:23.555Z,95.44
2017-11-18T02:33:36.188Z,95.54
2017-11-18T02:33:49.325Z,95.73
2017-11-18T02:34:02.402Z,95.54
2017-11-18T02:34:15.548Z,95.73
2017-11-18T02:34:28.670Z,95.73
2017-11-18T02:34:41.800Z,95.93
2017-11-18T02:34:54.434Z,95.73
2017-11-18T02:35:07.110Z,95.83
2017-11-18T02:35:20.948Z,95.73
2017-11-18T02:35:34.108Z,95.54
2017-11-18T02:35:47.270Z,95.73
2017-11-18T02:36:00.440Z,95.83
2017-11-18T02:36:13.085Z,95.73
2017-11-18T02:36:26.260Z,95.54
2017-11-18T02:36:39.417Z,95.34
2017-11-18T02:36:52.470Z,95.73
2017-11-18T02:37:05.600Z,95.54
2017-11-18T02:37:18.242Z,95.44
2017-11-18T02:37:31.434Z,95.54
2017-11-18T02:37:44.056Z,95.54
2017-11-18T02:37:57.173Z,95.73
2017-11-18T02:38:10.336Z,95.54
2017-11-18T02:38:23.428Z,95.73
2017-11-18T02:38:36.541Z,95.54
2017-11-18T02:38:49.182Z,95.54
2017-11-18T02:39:02.305Z,95.34
2017-11-18T02:39:15.464Z,95.93
2017-11-18T02:39:28.170Z,95.64
2017-11-18T02:39:41.317Z,95.83
2017-11-18T02:39:54.534Z,95.64
2017-11-18T02:40:07.694Z,95.64
2017-11-18T02:40:20.905Z,96.12
2017-11-18T02:40:33.577Z,95.93
2017-11-18T02:40:46.745Z,95.93
2017-11-18T02:40:59.884Z,95.34
2017-11-18T02:41:13.004Z,95.39
2017-11-18T02:41:26.179Z,95.2
2017-11-18T02:41:39.321Z,95.59
2017-11-18T02:41:52.433Z,95.78
2017-11-18T02:42:05.601Z,95.59
2017-11-18T02:42:18.770Z,95.2
2017-11-18T02:42:31.933Z,95.2
2017-11-18T02:42:45.119Z,94.91
2017-11-18T02:42:58.313Z,95.29
2017-11-18T02:43:11.487Z,95.01
2017-11-18T02:43:24.611Z,95.2
2017-11-18T02:43:37.265Z,94.91
2017-11-18T02:43:50.388Z,95.29
2017-11-18T02:44:03.557Z,95.15
2017-11-18T02:44:16.693Z,95.34
2017-11-18T02:44:29.881Z,95.49
2017-11-18T02:44:43.026Z,95.29
2017-11-18T02:44:56.203Z,95.49
2017-11-18T02:45:09.395Z,95.1
2017-11-18T02:45:22.061Z,94.91
2017-11-18T02:45:34.981Z,94.86
2017-11-18T02:45:48.067Z,94.81
2017-11-18T02:46:01.212Z,95.1
2017-11-18T02:46:14.475Z,94.81
2017-11-18T02:46:27.601Z,95.01
2017-11-18T02:46:40.289Z,95.1
2017-11-18T02:46:52.963Z,95.1
2017-11-18T02:47:06.065Z,95.1
2017-11-18T02:47:19.241Z,95.01
2017-11-18T02:47:32.332Z,94.62
2017-11-18T02:47:45.483Z,94.23
2017-11-18T02:47:58.609Z,94.18
2017-11-18T02:48:11.759Z,95.01
2017-11-18T02:48:24.884Z,94.43
2017-11-18T02:48:37.571Z,94.91